createdAt,value
2023-03-25T00:01:42.141Z,98015.86
2023-03-25T00:04:10.517Z,98011.16
2023-03-25T00:06:39.329Z,98001.05
2023-03-25T00:09:08.429Z,98004.09
2023-03-25T00:11:37.838Z,98007.27
2023-03-25T00:14:06.718Z,98005.73
2023-03-25T00:16:41.795Z,97999.13
2023-03-25T00:19:10.210Z,97998.30
2023-03-25T00:21:40.015Z,98002.43
2023-03-25T00:24:12.565Z,97999.31
2023-03-25T00:26:42.905Z,98005.08
2023-03-25T00:29:11.397Z,98003.27
2023-03-25T00:31:42.572Z,98005.70
2023-03-25T00:34:14.626Z,98003.42
2023-03-25T00:36:49.117Z,98003.56
2023-03-25T00:39:18.523Z,97998.87
2023-03-25T00:41:48.533Z,97998.60
2023-03-25T00:44:18.962Z,97997.10
2023-03-25T00:46:47.894Z,97999.95
2023-03-25T00:49:25.234Z,97999.68
2023-03-25T00:51:56.900Z,98000.14
2023-03-25T00:54:27.726Z,98003.39
2023-03-25T00:56:56.503Z,98000.46
2023-03-25T00:59:25.096Z,97997.27
2023-03-25T01:01:56.450Z,97991.82
2023-03-25T01:04:25.232Z,97994.25
2023-03-25T01:06:55.251Z,97987.98
2023-03-25T01:09:26.494Z,97982.89
2023-03-25T01:11:56.302Z,97988.16
2023-03-25T01:14:27.546Z,97985.36
2023-03-25T01:16:55.833Z,97985.66
2023-03-25T01:19:25.528Z,97985.19
2023-03-25T01:22:03.634Z,97982.77
2023-03-25T01:24:32.324Z,97987.72
2023-03-25T01:27:00.800Z,97989.19
2023-03-25T01:29:30.750Z,97996.23
2023-03-25T01:31:59.402Z,97999.38
2023-03-25T01:34:27.882Z,98005.17
2023-03-25T01:36:56.666Z,98004.95
2023-03-25T01:39:25.909Z,97999.50
2023-03-25T01:41:55.455Z,97998.47
2023-03-25T01:44:25.519Z,98021.60
2023-03-25T01:46:56.374Z,98032.63
2023-03-25T01:49:31.398Z,98025.79
2023-03-25T01:52:07.256Z,98021.23
2023-03-25T01:54:37.628Z,98022.24
2023-03-25T01:57:06.890Z,98017.80
2023-03-25T01:59:35.446Z,98015.21
2023-03-25T02:02:08.647Z,98013.48
2023-03-25T02:04:46.399Z,98013.25
2023-03-25T02:07:16.826Z,98010.06
2023-03-25T02:09:45.406Z,98005.81
2023-03-25T02:12:14.190Z,97998.41
2023-03-25T02:14:46.153Z,97989.54
2023-03-25T02:17:33.523Z,97985.73
2023-03-25T02:20:36.463Z,97976.52
2023-03-25T02:23:15.003Z,97976.73
2023-03-25T02:26:06.120Z,97972.21
2023-03-25T02:28:39.583Z,97966.69
2023-03-25T02:31:29.706Z,97963.45
2023-03-25T02:34:09.007Z,97962.18
2023-03-25T02:37:06.118Z,97957.69
2023-03-25T02:39:43.209Z,97950.08
2023-03-25T02:42:11.616Z,97948.23
2023-03-25T02:44:42.507Z,97943.14
2023-03-25T02:47:14.880Z,97938.44
2023-03-25T02:49:55.938Z,97936.69
2023-03-25T02:52:28.855Z,97942.98
2023-03-25T02:55:02.073Z,97941.54
2023-03-25T02:57:32.642Z,97942.67
2023-03-25T03:00:08.073Z,97938.48
2023-03-25T03:02:50.815Z,97936.30
2023-03-25T03:05:22.412Z,97933.90
2023-03-25T03:08:14.968Z,97931.34
2023-03-25T03:11:06.993Z,97925.48
2023-03-25T03:13:46.628Z,97920.61
2023-03-25T03:16:22.020Z,97924.89
2023-03-25T03:19:05.500Z,97926.88
2023-03-25T03:21:51.695Z,97928.89
2023-03-25T03:24:30.026Z,97924.77
2023-03-25T03:27:15.111Z,97925.11
2023-03-25T03:29:51.337Z,97924.94
2023-03-25T03:32:30.928Z,97927.02
2023-03-25T03:35:04.479Z,97922.43
2023-03-25T03:37:41.831Z,97914.27
2023-03-25T03:40:14.208Z,97907.33
2023-03-25T03:42:50.860Z,97909.45
2023-03-25T03:45:22.571Z,97906.76
2023-03-25T03:47:52.921Z,97902.88
2023-03-25T03:50:25.502Z,97911.14
2023-03-25T03:53:04.027Z,97911.77
2023-03-25T03:55:40.342Z,97912.21
2023-03-25T03:58:16.410Z,97909.45
2023-03-25T04:01:09.946Z,97908.34
2023-03-25T04:03:45.333Z,97910.54
2023-03-25T04:06:13.573Z,97911.04
2023-03-25T04:08:51.904Z,97916.14
2023-03-25T04:11:23.157Z,97915.45
2023-03-25T04:13:52.410Z,97917.42
2023-03-25T04:16:20.870Z,97918.04
2023-03-25T04:18:53.878Z,97917.05
2023-03-25T04:21:25.565Z,97921.30
2023-03-25T04:23:53.792Z,97920.06
2023-03-25T04:26:22.035Z,97921.23
2023-03-25T04:28:52.939Z,97920.33
2023-03-25T04:31:21.968Z,97918.55
2023-03-25T04:33:50.954Z,97917.67
2023-03-25T04:36:20.275Z,97916.23
2023-03-25T04:38:48.805Z,97917.09
2023-03-25T04:41:23.345Z,97917.56
2023-03-25T04:43:51.798Z,97918.80
2023-03-25T04:46:20.667Z,97918.96
2023-03-25T04:56:24.545Z,97913.66
2023-03-25T04:58:53.454Z,97913.83
2023-03-25T05:01:24.675Z,97913.46
2023-03-25T05:03:53.172Z,97914.03
2023-03-25T05:06:26.291Z,97913.63
2023-03-25T05:08:56.425Z,97915.52
2023-03-25T05:11:24.524Z,97914.61
2023-03-25T05:13:57.864Z,97917.40
2023-03-25T05:16:26.832Z,97919.34
2023-03-25T05:18:55.196Z,97918.58
2023-03-25T05:21:31.863Z,97922.73
2023-03-25T05:24:01.840Z,97919.34
2023-03-25T05:26:34.562Z,97916.98
2023-03-25T05:29:21.270Z,97918.50
2023-03-25T05:31:49.657Z,97918.63
2023-03-25T05:34:20.771Z,97920.23
2023-03-25T05:36:49.989Z,97917.64
2023-03-25T05:39:20.824Z,97915.09
2023-03-25T05:41:50.636Z,97911.48
2023-03-25T05:44:20.341Z,97907.52
2023-03-25T05:46:49.349Z,97908.12
2023-03-25T05:49:17.591Z,97906.27
2023-03-25T05:51:54.398Z,97902.54
2023-03-25T05:54:24.741Z,97897.85
2023-03-25T05:56:53.255Z,97892.33
2023-03-25T05:59:22.077Z,97890.02
2023-03-25T06:01:50.586Z,97889.34
2023-03-25T06:04:22.081Z,97887.20
2023-03-25T06:06:51.726Z,97888.76
2023-03-25T06:09:20.394Z,97884.69
2023-03-25T06:11:53.791Z,97880.83
2023-03-25T06:14:25.759Z,97875.71
2023-03-25T06:16:56.924Z,97875.14
2023-03-25T06:19:26.646Z,97868.85
2023-03-25T06:22:01.020Z,97870.05
2023-03-25T06:24:37.910Z,97872.54
2023-03-25T06:27:07.504Z,97867.80
2023-03-25T06:29:39.010Z,97866.02
2023-03-25T06:32:07.638Z,97865.35
2023-03-25T06:34:35.962Z,97868.91
2023-03-25T06:37:05.213Z,97871.67
2023-03-25T06:39:34.203Z,97876.19
2023-03-25T06:42:07.426Z,97880.20
2023-03-25T06:44:54.324Z,97880.20
2023-03-25T06:47:39.984Z,97884.77
2023-03-25T06:50:09.089Z,97882.98
2023-03-25T06:52:37.886Z,97877.04
2023-03-25T06:55:07.765Z,97876.16
2023-03-25T06:57:36.370Z,97878.34
2023-03-25T07:00:06.862Z,97873.56
2023-03-25T07:02:48.415Z,97873.27
2023-03-25T07:05:16.965Z,97873.20
2023-03-25T07:07:45.867Z,97870.83
2023-03-25T07:10:15.560Z,97871.69
2023-03-25T07:12:43.940Z,97869.33
2023-03-25T07:15:17.117Z,97867.81
2023-03-25T07:17:49.515Z,97862.27
2023-03-25T07:20:18.097Z,97860.50
2023-03-25T07:22:50.718Z,97856.73
2023-03-25T07:25:19.145Z,97857.86
2023-03-25T07:27:53.045Z,97853.13
2023-03-25T07:30:22.270Z,97856.75
2023-03-25T07:32:51.031Z,97852.73
2023-03-25T07:35:20.495Z,97852.33
2023-03-25T07:37:49.424Z,97854.88
2023-03-25T07:40:18.109Z,97858.25
2023-03-25T07:42:49.966Z,97862.42
2023-03-25T07:45:23.412Z,97858.02
2023-03-25T07:47:55.636Z,97865.86
2023-03-25T07:50:26.072Z,97865.45
2023-03-25T07:52:55.598Z,97867.09
2023-03-25T07:55:24.340Z,97865.70
2023-03-25T07:57:52.733Z,97865.23
2023-03-25T08:00:27.020Z,97863.25
2023-03-25T08:02:56.589Z,97862.38
2023-03-25T08:05:28.080Z,97860.89
2023-03-25T08:08:00.463Z,97863.67
2023-03-25T08:10:29.233Z,97862.99
2023-03-25T08:13:03.922Z,97864.06
2023-03-25T08:15:34.956Z,97859.96
2023-03-25T08:18:03.927Z,97863.10
2023-03-25T08:20:39.247Z,97862.95
2023-03-25T08:23:10.770Z,97858.80
2023-03-25T08:25:39.249Z,97853.23
2023-03-25T08:28:08.604Z,97846.56
2023-03-25T08:30:38.560Z,97850.49
2023-03-25T08:33:07.549Z,97856.19
2023-03-25T08:35:56.715Z,97855.05
2023-03-25T08:38:25.842Z,97857.45
2023-03-25T08:40:56.026Z,97858.34
2023-03-25T08:43:27.819Z,97858.05
2023-03-25T08:45:59.491Z,97856.45
2023-03-25T08:48:27.953Z,97856.60
2023-03-25T08:50:59.488Z,97858.45
2023-03-25T08:53:28.218Z,97853.52
2023-03-25T08:55:57.428Z,97849.86
2023-03-25T08:58:26.072Z,97848.65
2023-03-25T09:00:58.306Z,97844.58
2023-03-25T09:03:27.564Z,97837.48
2023-03-25T09:05:59.416Z,97844.21
2023-03-25T09:08:28.029Z,97844.45
2023-03-25T09:10:56.971Z,97844.84
2023-03-25T09:13:28.030Z,97836.17
2023-03-25T09:15:58.878Z,97831.60
2023-03-25T09:18:28.348Z,97834.59
2023-03-25T09:21:00.541Z,97831.70
2023-03-25T09:23:29.210Z,97825.52
2023-03-25T09:26:06.681Z,97822.16
2023-03-25T09:28:35.482Z,97827.27
2023-03-25T09:31:10.261Z,97832.66
2023-03-25T09:33:38.998Z,97832.44
2023-03-25T09:36:08.451Z,97829.95
2023-03-25T09:38:39.442Z,97828.41
2023-03-25T09:41:26.984Z,97823.19
2023-03-25T09:43:59.127Z,97813.91
2023-03-25T09:46:27.549Z,97816.80
2023-03-25T09:49:11.032Z,97819.27
2023-03-25T10:00:02.304Z,97821.19
2023-03-25T10:02:43.891Z,97820.42
2023-03-25T10:05:51.150Z,97829.20
2023-03-25T10:08:41.987Z,97832.58
2023-03-25T10:11:21.054Z,97826.77
2023-03-25T10:14:05.359Z,97825.91
2023-03-25T10:16:45.760Z,97824.05
2023-03-25T10:19:17.883Z,97824.98
2023-03-25T10:22:02.238Z,97820.86
2023-03-25T10:24:54.910Z,97822.66
2023-03-25T10:27:36.676Z,97814.55
2023-03-25T10:30:14.991Z,97813.52
2023-03-25T10:32:48.495Z,97811.14
2023-03-25T10:35:31.628Z,97808.20
2023-03-25T10:38:13.921Z,97802.33
2023-03-25T10:40:50.537Z,97799.52
2023-03-25T10:43:28.281Z,97798.42
2023-03-25T10:46:19.054Z,97796.54
2023-03-25T10:48:51.706Z,97791.95
2023-03-25T10:51:24.609Z,97787.94
2023-03-25T10:53:54.982Z,97790.70
2023-03-25T10:56:47.376Z,97787.48
2023-03-25T10:59:28.067Z,97785.91
2023-03-25T11:01:57.318Z,97784.34
2023-03-25T11:04:35.339Z,97777.87
2023-03-25T11:07:16.651Z,97772.52
2023-03-25T11:09:47.800Z,97772.27
2023-03-25T11:12:27.297Z,97764.71
2023-03-25T11:14:59.191Z,97758.09
2023-03-25T11:17:29.435Z,97755.70
2023-03-25T11:20:05.849Z,97752.73
2023-03-25T11:22:36.205Z,97749.80
2023-03-25T11:25:06.998Z,97740.80
2023-03-25T11:27:51.388Z,97739.23
2023-03-25T11:30:24.274Z,97742.98
2023-03-25T11:33:10.614Z,97742.67
2023-03-25T11:35:44.700Z,97737.82
2023-03-25T11:38:19.208Z,97732.27
2023-03-25T11:40:57.575Z,97731.66
2023-03-25T11:43:28.500Z,97729.95
2023-03-25T11:45:57.109Z,97729.98
2023-03-25T11:48:30.372Z,97725.27
2023-03-25T11:51:00.855Z,97723.81
2023-03-25T11:53:36.309Z,97720.29
2023-03-25T11:56:07.551Z,97721.34
2023-03-25T11:58:37.722Z,97721.23
2023-03-25T12:01:20.474Z,97718.55
2023-03-25T12:03:49.393Z,97722.83
2023-03-25T12:06:23.718Z,97725.91
2023-03-25T12:08:56.825Z,97722.56
2023-03-25T12:11:42.709Z,97722.00
2023-03-25T12:14:15.983Z,97717.87
2023-03-25T12:16:59.353Z,97714.56
2023-03-25T12:19:47.221Z,97716.10
2023-03-25T12:22:42.548Z,97714.52
2023-03-25T12:25:34.152Z,97709.48
2023-03-25T12:28:15.230Z,97712.77
2023-03-25T12:31:07.356Z,97714.88
2023-03-25T12:33:58.266Z,97713.66
2023-03-25T12:36:41.924Z,97715.48
2023-03-25T12:39:44.694Z,97717.25
2023-03-25T12:42:52.695Z,97712.42
2023-03-25T12:45:23.945Z,97714.38
2023-03-25T12:48:26.294Z,97711.08
2023-03-25T12:51:13.436Z,97706.38
2023-03-25T12:53:53.532Z,97702.46
2023-03-25T12:56:28.417Z,97697.23
2023-03-25T12:59:21.679Z,97699.11
2023-03-25T13:02:29.160Z,97692.67
2023-03-25T13:05:11.569Z,97687.80
2023-03-25T13:07:44.274Z,97684.81
2023-03-25T13:10:23.275Z,97680.61
2023-03-25T13:12:56.530Z,97675.91
2023-03-25T13:15:28.046Z,97676.44
2023-03-25T13:18:12.223Z,97673.85
2023-03-25T13:20:49.791Z,97667.73
2023-03-25T13:23:22.243Z,97665.30
2023-03-25T13:25:53.270Z,97659.88
2023-03-25T13:28:30.469Z,97656.66
2023-03-25T13:30:59.452Z,97658.36
2023-03-25T13:33:30.542Z,97650.90
2023-03-25T13:36:09.829Z,97650.31
2023-03-25T13:38:59.703Z,97646.60
2023-03-25T13:41:48.115Z,97647.52
2023-03-25T13:44:31.379Z,97643.96
2023-03-25T13:47:09.483Z,97639.52
2023-03-25T13:49:42.540Z,97638.72
2023-03-25T13:52:11.397Z,97641.09
2023-03-25T13:54:50.179Z,97637.48
2023-03-25T13:57:45.441Z,97637.39
2023-03-25T14:00:21.712Z,97636.47
2023-03-25T14:03:03.921Z,97639.11
2023-03-25T14:05:54.498Z,97636.55
2023-03-25T14:08:28.776Z,97636.31
2023-03-25T14:11:16.736Z,97634.40
2023-03-25T14:14:01.612Z,97636.75
2023-03-25T14:16:34.401Z,97634.89
2023-03-25T14:19:04.421Z,97634.41
2023-03-25T14:21:39.679Z,97632.40
2023-03-25T14:24:10.950Z,97633.71
2023-03-25T14:26:51.681Z,97631.18
2023-03-25T14:29:20.078Z,97629.60
2023-03-25T14:32:14.209Z,97623.38
2023-03-25T14:34:51.762Z,97616.08
2023-03-25T14:37:21.882Z,97613.38
2023-03-25T14:39:50.462Z,97610.98
2023-03-25T14:42:30.058Z,97605.09
2023-03-25T14:45:32.438Z,97604.61
2023-03-25T14:48:01.236Z,97603.45
2023-03-25T14:50:33.240Z,97599.33
2023-03-25T14:53:06.995Z,97599.62
2023-03-25T14:55:44.477Z,97601.45
2023-03-25T14:58:23.355Z,97607.14
2023-03-25T15:00:55.447Z,97604.48
2023-03-25T15:03:37.294Z,97604.71
2023-03-25T15:06:07.016Z,97603.41
2023-03-25T15:08:41.990Z,97602.23
2023-03-25T15:11:17.116Z,97602.58
2023-03-25T15:13:56.460Z,97605.70
2023-03-25T15:16:33.840Z,97598.63
2023-03-25T15:19:06.121Z,97597.36
2023-03-25T15:22:01.527Z,97596.58
2023-03-25T15:24:31.998Z,97598.13
2023-03-25T15:27:02.537Z,97596.06
2023-03-25T15:30:02.249Z,97593.25
2023-03-25T15:32:44.373Z,97590.21
2023-03-25T15:35:51.375Z,97592.26
2023-03-25T15:39:02.128Z,97590.18
2023-03-25T15:42:03.551Z,97589.60
2023-03-25T15:44:46.982Z,97591.23
2023-03-25T15:47:38.229Z,97586.79
2023-03-25T15:50:45.868Z,97587.73
2023-03-25T15:53:41.803Z,97588.67
2023-03-25T15:56:34.220Z,97582.55
2023-03-25T15:59:19.148Z,97580.64
2023-03-25T16:01:48.765Z,97584.70
2023-03-25T16:04:21.768Z,97580.74
2023-03-25T16:06:52.527Z,97580.48
2023-03-25T16:09:27.983Z,97576.34
2023-03-25T16:12:01.290Z,97576.84
2023-03-25T16:14:31.730Z,97576.62
2023-03-25T16:17:06.029Z,97571.65
2023-03-25T16:19:39.268Z,97566.97
2023-03-25T16:22:28.302Z,97570.23
2023-03-25T16:24:58.174Z,97567.23
2023-03-25T16:27:37.800Z,97568.45
2023-03-25T16:30:32.984Z,97562.40
2023-03-25T16:33:10.978Z,97566.73
2023-03-25T16:35:41.687Z,97562.53
2023-03-25T16:38:18.342Z,97562.13
2023-03-25T16:40:50.376Z,97560.19
2023-03-25T16:43:21.256Z,97559.20
2023-03-25T16:45:51.747Z,97562.45
2023-03-25T16:48:27.594Z,97558.50
2023-03-25T16:50:56.991Z,97558.86
2023-03-25T16:53:25.897Z,97555.50
2023-03-25T16:55:58.991Z,97556.16
2023-03-25T16:58:27.947Z,97555.16
2023-03-25T17:00:56.336Z,97550.84
2023-03-25T17:03:45.019Z,97547.59
2023-03-25T17:06:40.742Z,97549.05
2023-03-25T17:09:18.141Z,97544.90
2023-03-25T17:11:50.221Z,97544.77
2023-03-25T17:14:23.496Z,97544.34
2023-03-25T17:16:52.266Z,97547.59
2023-03-25T17:19:21.833Z,97547.38
2023-03-25T17:22:18.849Z,97549.65
2023-03-25T17:24:58.058Z,97548.75
2023-03-25T17:27:36.609Z,97544.38
2023-03-25T17:30:42.765Z,97543.23
2023-03-25T17:33:35.909Z,97538.82
2023-03-25T17:36:09.238Z,97543.18
2023-03-25T17:38:48.514Z,97539.84
2023-03-25T17:41:20.184Z,97539.98
2023-03-25T17:43:50.918Z,97535.66
2023-03-25T17:46:30.827Z,97535.77
2023-03-25T17:48:59.778Z,97535.21
2023-03-25T17:51:29.967Z,97534.06
2023-03-25T17:54:01.641Z,97529.89
2023-03-25T17:56:32.635Z,97528.52
2023-03-25T17:59:13.257Z,97521.98
2023-03-25T18:01:42.196Z,97517.48
2023-03-25T18:04:14.352Z,97539.87
2023-03-25T18:06:44.792Z,97545.46
2023-03-25T18:09:18.614Z,97542.63
2023-03-25T18:11:48.610Z,97543.31
2023-03-25T18:14:17.973Z,97537.13
2023-03-25T18:16:52.254Z,97536.39
2023-03-25T18:19:23.536Z,97536.33
2023-03-25T18:21:52.584Z,97537.58
2023-03-25T18:24:23.777Z,97538.81
2023-03-25T18:26:52.103Z,97541.98
2023-03-25T18:29:24.241Z,97540.41
2023-03-25T18:31:53.121Z,97544.31
2023-03-25T18:34:23.740Z,97544.63
2023-03-25T18:36:53.995Z,97547.86
2023-03-25T18:39:24.279Z,97548.73
2023-03-25T18:41:53.025Z,97547.23
2023-03-25T18:44:22.111Z,97546.78
2023-03-25T18:46:52.338Z,97544.20
2023-03-25T18:49:22.349Z,97543.91
2023-03-25T18:51:51.473Z,97544.27
2023-03-25T18:54:20.238Z,97541.88
2023-03-25T18:56:48.715Z,97540.42
2023-03-25T18:59:22.166Z,97540.76
2023-03-25T19:01:50.347Z,97542.00
2023-03-25T19:04:19.485Z,97541.02
2023-03-25T19:06:53.691Z,97541.34
2023-03-25T19:09:23.790Z,97542.21
2023-03-25T19:11:52.799Z,97541.55
2023-03-25T19:14:21.237Z,97545.14
2023-03-25T19:17:01.129Z,97542.89
2023-03-25T19:19:31.190Z,97547.31
2023-03-25T19:21:59.922Z,97550.55
2023-03-25T19:24:28.912Z,97552.89
2023-03-25T19:26:59.039Z,97553.53
2023-03-25T19:29:28.228Z,97564.09
2023-03-25T19:31:56.502Z,97563.81
2023-03-25T19:34:24.982Z,97564.64
2023-03-25T19:37:02.522Z,97567.66
2023-03-25T19:39:31.485Z,97566.23
2023-03-25T19:42:00.582Z,97568.43
2023-03-25T19:44:29.523Z,97569.73
2023-03-25T19:47:00.853Z,97569.49
2023-03-25T19:49:39.168Z,97573.20
2023-03-25T19:52:08.766Z,97584.64
2023-03-25T19:54:40.780Z,97582.13
2023-03-25T19:57:09.913Z,97585.31
2023-03-25T19:59:45.719Z,97584.33
2023-03-25T20:02:15.782Z,97582.90
2023-03-25T20:04:44.740Z,97586.48
2023-03-25T20:07:20.525Z,97588.08
2023-03-25T20:21:33.293Z,97599.98
2023-03-25T20:24:02.188Z,97602.93
2023-03-25T20:26:30.557Z,97598.41
2023-03-25T20:28:59.344Z,97596.23
2023-03-25T20:31:28.522Z,97598.20
2023-03-25T20:33:56.822Z,97596.41
2023-03-25T20:36:25.188Z,97594.36
2023-03-25T20:38:57.534Z,97591.95
2023-03-25T20:41:29.421Z,97596.19
2023-03-25T20:43:57.780Z,97596.27
2023-03-25T20:46:28.912Z,97595.20
2023-03-25T20:48:58.036Z,97594.02
2023-03-25T20:51:26.310Z,97595.27
2023-03-25T20:53:55.650Z,97596.21
2023-03-25T20:56:24.004Z,97598.41
2023-03-25T20:58:55.174Z,97595.87
2023-03-25T21:01:23.830Z,97595.38
2023-03-25T21:03:53.558Z,97598.95
2023-03-25T21:06:26.588Z,97599.70
2023-03-25T21:08:59.568Z,97600.45
2023-03-25T21:11:32.170Z,97602.20
2023-03-25T21:14:00.757Z,97609.89
2023-03-25T21:16:31.311Z,97609.86
2023-03-25T21:19:03.046Z,97613.04
2023-03-25T21:21:31.639Z,97610.25
2023-03-25T21:24:00.610Z,97614.59
2023-03-25T21:26:36.578Z,97620.56
2023-03-25T21:29:05.760Z,97620.55
2023-03-25T21:31:34.587Z,97619.05
2023-03-25T21:34:03.962Z,97621.64
2023-03-25T21:36:32.779Z,97622.69
2023-03-25T21:39:04.598Z,97621.95
2023-03-25T21:41:34.294Z,97621.11
2023-03-25T21:44:03.090Z,97620.11
2023-03-25T21:46:33.693Z,97617.39
2023-03-25T21:49:03.938Z,97621.59
2023-03-25T21:51:32.572Z,97620.73
2023-03-25T21:54:01.148Z,97623.63
2023-03-25T21:56:31.667Z,97626.08
2023-03-25T21:59:02.017Z,97625.02
2023-03-25T22:01:32.710Z,97628.09
2023-03-25T22:04:01.795Z,97630.16
2023-03-25T22:06:31.584Z,97627.94
2023-03-25T22:09:05.794Z,97628.35
2023-03-25T22:11:35.823Z,97627.86
2023-03-25T22:14:05.640Z,97623.34
2023-03-25T22:16:36.152Z,97627.34
2023-03-25T22:19:04.926Z,97631.17
2023-03-25T22:21:37.149Z,97628.03
2023-03-25T22:24:07.782Z,97625.20
2023-03-25T22:26:39.381Z,97622.44
2023-03-25T22:29:09.718Z,97628.95
2023-03-25T22:31:40.863Z,97623.22
2023-03-25T22:34:12.019Z,97631.20
2023-03-25T22:36:46.323Z,97630.52
2023-03-25T22:39:15.413Z,97634.71
2023-03-25T22:41:45.418Z,97635.08
2023-03-25T22:44:17.197Z,97641.14
2023-03-25T22:46:49.053Z,97646.73
2023-03-25T22:49:18.839Z,97643.77
2023-03-25T22:51:48.944Z,97645.17
2023-03-25T22:54:17.396Z,97649.56
2023-03-25T22:56:46.211Z,97647.70
2023-03-25T22:59:15.632Z,97648.25
2023-03-25T23:01:46.670Z,97648.07
2023-03-25T23:04:15.868Z,97651.24
2023-03-25T23:06:51.154Z,97646.17
2023-03-25T23:09:41.880Z,97651.58
2023-03-25T23:12:23.099Z,97645.89
2023-03-25T23:14:54.524Z,97648.77
2023-03-25T23:17:24.354Z,97647.19
2023-03-25T23:19:52.774Z,97651.19
2023-03-25T23:22:25.313Z,97653.09
2023-03-25T23:24:54.604Z,97659.86
2023-03-25T23:27:24.524Z,97653.56
2023-03-25T23:29:53.012Z,97654.58
2023-03-25T23:32:21.449Z,97653.20
2023-03-25T23:34:50.369Z,97649.34
2023-03-25T23:37:19.259Z,97652.82
2023-03-25T23:39:47.550Z,97658.03
2023-03-25T23:42:16.932Z,97656.10
2023-03-25T23:44:46.024Z,97658.66
2023-03-25T23:47:14.608Z,97655.11
2023-03-25T23:49:44.314Z,97650.45
2023-03-25T23:52:13.784Z,97653.80
2023-03-25T23:54:44.047Z,97654.36
2023-03-25T23:57:14.634Z,97649.71
2023-03-25T23:59:45.714Z,97648.16
